sensor_id;sensor_type;location;lat;lon;timestamp;P1;durP1;ratioP1;P2;durP2;ratioP2
18259;SDS011;9256;52.236;5.712;2023-04-01T00:01:05;13.77;;;6.45;;
18259;SDS011;9256;52.236;5.712;2023-04-01T00:03:33;14.77;;;6.47;;
18259;SDS011;9256;52.236;5.712;2023-04-01T00:06:01;16.52;;;6.32;;
18259;SDS011;9256;52.236;5.712;2023-04-01T00:08:28;20.30;;;6.75;;
18259;SDS011;9256;52.236;5.712;2023-04-01T00:10:56;19.30;;;6.10;;
18259;SDS011;9256;52.236;5.712;2023-04-01T00:13:24;19.08;;;7.28;;
18259;SDS011;9256;52.236;5.712;2023-04-01T00:15:52;24.73;;;10.57;;
18259;SDS011;9256;52.236;5.712;2023-04-01T00:18:20;17.98;;;7.82;;
18259;SDS011;9256;52.236;5.712;2023-04-01T00:20:47;21.60;;;8.40;;
18259;SDS011;9256;52.236;5.712;2023-04-01T00:23:15;19.65;;;8.05;;
18259;SDS011;9256;52.236;5.712;2023-04-01T00:25:43;19.00;;;7.57;;
18259;SDS011;9256;52.236;5.712;2023-04-01T00:28:12;24.55;;;8.32;;
18259;SDS011;9256;52.236;5.712;2023-04-01T00:30:41;23.35;;;8.38;;
18259;SDS011;9256;52.236;5.712;2023-04-01T00:33:08;20.58;;;7.80;;
18259;SDS011;9256;52.236;5.712;2023-04-01T00:35:35;23.30;;;8.50;;
18259;SDS011;9256;52.236;5.712;2023-04-01T00:38:02;26.88;;;8.38;;
18259;SDS011;9256;52.236;5.712;2023-04-01T00:40:30;24.52;;;8.35;;
18259;SDS011;9256;52.236;5.712;2023-04-01T00:42:58;24.50;;;8.60;;
18259;SDS011;9256;52.236;5.712;2023-04-01T00:45:27;23.10;;;8.00;;
18259;SDS011;9256;52.236;5.712;2023-04-01T00:48:02;23.75;;;7.70;;
18259;SDS011;9256;52.236;5.712;2023-04-01T00:50:33;21.63;;;7.50;;
18259;SDS011;9256;52.236;5.712;2023-04-01T00:53:02;22.98;;;8.02;;
18259;SDS011;9256;52.236;5.712;2023-04-01T00:55:30;22.30;;;8.20;;
18259;SDS011;9256;52.236;5.712;2023-04-01T00:58:00;21.63;;;7.72;;
18259;SDS011;9256;52.236;5.712;2023-04-01T01:00:29;24.65;;;9.20;;
18259;SDS011;9256;52.236;5.712;2023-04-01T01:02:57;25.50;;;8.43;;
18259;SDS011;9256;52.236;5.712;2023-04-01T01:05:28;27.00;;;8.52;;
18259;SDS011;9256;52.236;5.712;2023-04-01T01:08:03;29.25;;;9.10;;
18259;SDS011;9256;52.236;5.712;2023-04-01T01:10:40;31.00;;;9.10;;
18259;SDS011;9256;52.236;5.712;2023-04-01T01:13:14;28.30;;;8.75;;
18259;SDS011;9256;52.236;5.712;2023-04-01T01:15:49;27.73;;;9.27;;
18259;SDS011;9256;52.236;5.712;2023-04-01T01:18:23;30.92;;;11.93;;
18259;SDS011;9256;52.236;5.712;2023-04-01T01:21:09;27.20;;;9.32;;
18259;SDS011;9256;52.236;5.712;2023-04-01T01:27:04;30.50;;;8.82;;
18259;SDS011;9256;52.236;5.712;2023-04-01T01:29:41;30.33;;;9.00;;
18259;SDS011;9256;52.236;5.712;2023-04-01T01:32:36;27.33;;;8.25;;
18259;SDS011;9256;52.236;5.712;2023-04-01T01:35:19;37.47;;;13.45;;
18259;SDS011;9256;52.236;5.712;2023-04-01T01:37:49;28.35;;;9.95;;
18259;SDS011;9256;52.236;5.712;2023-04-01T01:40:20;31.63;;;9.02;;
18259;SDS011;9256;52.236;5.712;2023-04-01T01:42:48;30.35;;;9.32;;
18259;SDS011;9256;52.236;5.712;2023-04-01T01:45:21;30.42;;;8.38;;
18259;SDS011;9256;52.236;5.712;2023-04-01T01:47:51;31.17;;;10.43;;
18259;SDS011;9256;52.236;5.712;2023-04-01T01:50:20;30.67;;;9.98;;
18259;SDS011;9256;52.236;5.712;2023-04-01T01:52:48;23.90;;;8.93;;
18259;SDS011;9256;52.236;5.712;2023-04-01T01:55:23;29.58;;;9.88;;
18259;SDS011;9256;52.236;5.712;2023-04-01T01:57:53;34.30;;;10.30;;
18259;SDS011;9256;52.236;5.712;2023-04-01T02:00:23;28.98;;;9.63;;
18259;SDS011;9256;52.236;5.712;2023-04-01T02:02:51;26.92;;;9.20;;
18259;SDS011;9256;52.236;5.712;2023-04-01T02:05:22;40.17;;;10.93;;
18259;SDS011;9256;52.236;5.712;2023-04-01T02:07:52;34.50;;;10.48;;
18259;SDS011;9256;52.236;5.712;2023-04-01T02:10:26;33.35;;;10.40;;
18259;SDS011;9256;52.236;5.712;2023-04-01T02:12:58;34.33;;;10.75;;
18259;SDS011;9256;52.236;5.712;2023-04-01T02:15:31;36.25;;;11.18;;
18259;SDS011;9256;52.236;5.712;2023-04-01T02:18:03;35.35;;;10.65;;
18259;SDS011;9256;52.236;5.712;2023-04-01T02:20:33;30.58;;;9.90;;
18259;SDS011;9256;52.236;5.712;2023-04-01T02:23:02;30.63;;;10.13;;
18259;SDS011;9256;52.236;5.712;2023-04-01T02:25:33;33.08;;;10.77;;
18259;SDS011;9256;52.236;5.712;2023-04-01T02:28:02;31.48;;;10.85;;
18259;SDS011;9256;52.236;5.712;2023-04-01T02:30:33;33.22;;;11.40;;
18259;SDS011;9256;52.236;5.712;2023-04-01T02:33:02;31.00;;;10.25;;
18259;SDS011;9256;52.236;5.712;2023-04-01T02:35:30;24.90;;;8.65;;
18259;SDS011;9256;52.236;5.712;2023-04-01T02:38:00;25.23;;;9.05;;
18259;SDS011;9256;52.236;5.712;2023-04-01T02:40:27;24.48;;;9.05;;
18259;SDS011;9256;52.236;5.712;2023-04-01T02:42:54;24.73;;;8.73;;
18259;SDS011;9256;52.236;5.712;2023-04-01T02:45:21;27.00;;;9.02;;
18259;SDS011;9256;52.236;5.712;2023-04-01T02:47:48;18.65;;;7.22;;
18259;SDS011;9256;52.236;5.712;2023-04-01T02:50:15;22.40;;;8.45;;
18259;SDS011;9256;52.236;5.712;2023-04-01T02:52:42;26.80;;;10.05;;
18259;SDS011;9256;52.236;5.712;2023-04-01T02:55:11;20.45;;;7.63;;
18259;SDS011;9256;52.236;5.712;2023-04-01T02:57:37;18.83;;;7.28;;
18259;SDS011;9256;52.236;5.712;2023-04-01T03:00:05;17.55;;;6.95;;
18259;SDS011;9256;52.236;5.712;2023-04-01T03:02:36;17.13;;;6.63;;
18259;SDS011;9256;52.236;5.712;2023-04-01T03:05:04;20.08;;;6.90;;
18259;SDS011;9256;52.236;5.712;2023-04-01T03:07:32;16.90;;;6.20;;
18259;SDS011;9256;52.236;5.712;2023-04-01T03:09:59;19.35;;;6.57;;
18259;SDS011;9256;52.236;5.712;2023-04-01T03:12:27;13.48;;;5.53;;
18259;SDS011;9256;52.236;5.712;2023-04-01T03:14:54;16.98;;;6.55;;
18259;SDS011;9256;52.236;5.712;2023-04-01T03:17:21;14.43;;;6.40;;
18259;SDS011;9256;52.236;5.712;2023-04-01T03:19:48;18.00;;;6.90;;
18259;SDS011;9256;52.236;5.712;2023-04-01T03:22:15;19.60;;;7.05;;
18259;SDS011;9256;52.236;5.712;2023-04-01T03:24:44;15.40;;;6.30;;
18259;SDS011;9256;52.236;5.712;2023-04-01T03:27:11;17.97;;;7.27;;
18259;SDS011;9256;52.236;5.712;2023-04-01T03:29:39;17.13;;;6.60;;
18259;SDS011;9256;52.236;5.712;2023-04-01T03:32:06;16.48;;;6.35;;
18259;SDS011;9256;52.236;5.712;2023-04-01T03:34:33;14.32;;;6.00;;
18259;SDS011;9256;52.236;5.712;2023-04-01T03:37:00;13.88;;;6.03;;
18259;SDS011;9256;52.236;5.712;2023-04-01T03:39:27;14.80;;;6.35;;
18259;SDS011;9256;52.236;5.712;2023-04-01T03:41:54;17.25;;;6.05;;
18259;SDS011;9256;52.236;5.712;2023-04-01T03:44:20;14.45;;;5.95;;
18259;SDS011;9256;52.236;5.712;2023-04-01T03:46:49;17.10;;;7.80;;
18259;SDS011;9256;52.236;5.712;2023-04-01T03:49:16;13.73;;;6.05;;
18259;SDS011;9256;52.236;5.712;2023-04-01T03:51:43;16.30;;;6.85;;
18259;SDS011;9256;52.236;5.712;2023-04-01T03:54:10;14.20;;;6.40;;
18259;SDS011;9256;52.236;5.712;2023-04-01T03:56:37;17.07;;;8.47;;
18259;SDS011;9256;52.236;5.712;2023-04-01T03:59:05;15.95;;;6.85;;
18259;SDS011;9256;52.236;5.712;2023-04-01T04:01:33;16.45;;;6.53;;
18259;SDS011;9256;52.236;5.712;2023-04-01T04:04:01;14.13;;;5.95;;
18259;SDS011;9256;52.236;5.712;2023-04-01T04:06:29;13.50;;;5.85;;
18259;SDS011;9256;52.236;5.712;2023-04-01T04:08:57;14.23;;;5.63;;
18259;SDS011;9256;52.236;5.712;2023-04-01T04:11:24;13.35;;;5.93;;
18259;SDS011;9256;52.236;5.712;2023-04-01T04:13:51;13.88;;;6.15;;
18259;SDS011;9256;52.236;5.712;2023-04-01T04:16:19;15.60;;;5.75;;
18259;SDS011;9256;52.236;5.712;2023-04-01T04:18:46;13.95;;;6.07;;
18259;SDS011;9256;52.236;5.712;2023-04-01T04:21:14;14.70;;;5.88;;
18259;SDS011;9256;52.236;5.712;2023-04-01T04:23:41;13.52;;;5.70;;
18259;SDS011;9256;52.236;5.712;2023-04-01T04:26:09;15.50;;;6.05;;
18259;SDS011;9256;52.236;5.712;2023-04-01T04:28:38;18.67;;;6.85;;
18259;SDS011;9256;52.236;5.712;2023-04-01T04:31:05;18.25;;;6.25;;
18259;SDS011;9256;52.236;5.712;2023-04-01T04:33:32;15.13;;;6.28;;
18259;SDS011;9256;52.236;5.712;2023-04-01T04:36:00;16.02;;;6.35;;
18259;SDS011;9256;52.236;5.712;2023-04-01T04:38:30;14.75;;;5.80;;
18259;SDS011;9256;52.236;5.712;2023-04-01T04:40:57;15.80;;;6.28;;
18259;SDS011;9256;52.236;5.712;2023-04-01T04:43:24;15.98;;;5.80;;
18259;SDS011;9256;52.236;5.712;2023-04-01T04:45:50;14.20;;;5.82;;
18259;SDS011;9256;52.236;5.712;2023-04-01T04:48:17;15.25;;;5.40;;
18259;SDS011;9256;52.236;5.712;2023-04-01T04:50:45;18.42;;;6.38;;
18259;SDS011;9256;52.236;5.712;2023-04-01T04:53:14;18.02;;;5.97;;
18259;SDS011;9256;52.236;5.712;2023-04-01T04:55:46;17.63;;;5.95;;
18259;SDS011;9256;52.236;5.712;2023-04-01T04:58:13;17.75;;;6.22;;
18259;SDS011;9256;52.236;5.712;2023-04-01T05:00:41;16.35;;;5.28;;
18259;SDS011;9256;52.236;5.712;2023-04-01T05:03:08;16.95;;;5.35;;
18259;SDS011;9256;52.236;5.712;2023-04-01T05:05:36;16.55;;;5.30;;
18259;SDS011;9256;52.236;5.712;2023-04-01T05:08:02;20.42;;;5.72;;
18259;SDS011;9256;52.236;5.712;2023-04-01T05:10:29;16.92;;;5.45;;
18259;SDS011;9256;52.236;5.712;2023-04-01T05:12:58;19.45;;;5.78;;
18259;SDS011;9256;52.236;5.712;2023-04-01T05:15:25;19.35;;;5.63;;
18259;SDS011;9256;52.236;5.712;2023-04-01T05:17:52;19.70;;;5.53;;
18259;SDS011;9256;52.236;5.712;2023-04-01T05:20:19;18.67;;;5.72;;
18259;SDS011;9256;52.236;5.712;2023-04-01T05:22:46;20.65;;;6.07;;
18259;SDS011;9256;52.236;5.712;2023-04-01T05:25:13;21.77;;;6.43;;
18259;SDS011;9256;52.236;5.712;2023-04-01T05:27:40;21.65;;;6.28;;
18259;SDS011;9256;52.236;5.712;2023-04-01T05:30:08;21.98;;;6.45;;
18259;SDS011;9256;52.236;5.712;2023-04-01T05:32:36;22.30;;;6.15;;
18259;SDS011;9256;52.236;5.712;2023-04-01T05:35:03;21.35;;;5.57;;
18259;SDS011;9256;52.236;5.712;2023-04-01T05:37:32;20.85;;;5.60;;
18259;SDS011;9256;52.236;5.712;2023-04-01T05:39:59;21.23;;;6.15;;
18259;SDS011;9256;52.236;5.712;2023-04-01T05:42:26;21.58;;;6.35;;
18259;SDS011;9256;52.236;5.712;2023-04-01T05:44:53;22.70;;;6.18;;
18259;SDS011;9256;52.236;5.712;2023-04-01T05:47:22;27.50;;;6.22;;
18259;SDS011;9256;52.236;5.712;2023-04-01T05:49:49;22.10;;;6.05;;
18259;SDS011;9256;52.236;5.712;2023-04-01T05:52:16;24.83;;;6.47;;
18259;SDS011;9256;52.236;5.712;2023-04-01T05:54:43;24.70;;;6.20;;
18259;SDS011;9256;52.236;5.712;2023-04-01T05:57:10;23.90;;;6.20;;
18259;SDS011;9256;52.236;5.712;2023-04-01T05:59:37;26.05;;;6.72;;
18259;SDS011;9256;52.236;5.712;2023-04-01T06:02:04;21.67;;;6.05;;
18259;SDS011;9256;52.236;5.712;2023-04-01T06:04:34;25.73;;;6.10;;
18259;SDS011;9256;52.236;5.712;2023-04-01T06:07:05;22.73;;;5.97;;
18259;SDS011;9256;52.236;5.712;2023-04-01T06:09:39;23.23;;;6.45;;
18259;SDS011;9256;52.236;5.712;2023-04-01T06:14:54;26.25;;;6.65;;
18259;SDS011;9256;52.236;5.712;2023-04-01T06:17:40;26.10;;;6.57;;
18259;SDS011;9256;52.236;5.712;2023-04-01T06:20:19;24.75;;;6.30;;
18259;SDS011;9256;52.236;5.712;2023-04-01T06:23:01;27.27;;;6.75;;
18259;SDS011;9256;52.236;5.712;2023-04-01T06:25:39;26.17;;;6.38;;
18259;SDS011;9256;52.236;5.712;2023-04-01T06:31:20;25.35;;;6.28;;
18259;SDS011;9256;52.236;5.712;2023-04-01T06:34:20;24.95;;;6.15;;
18259;SDS011;9256;52.236;5.712;2023-04-01T06:37:03;27.38;;;7.07;;
18259;SDS011;9256;52.236;5.712;2023-04-01T06:39:48;30.77;;;7.63;;
18259;SDS011;9256;52.236;5.712;2023-04-01T06:45:20;28.63;;;6.85;;
18259;SDS011;9256;52.236;5.712;2023-04-01T06:47:58;29.80;;;6.53;;
18259;SDS011;9256;52.236;5.712;2023-04-01T06:50:36;37.10;;;9.20;;
18259;SDS011;9256;52.236;5.712;2023-04-01T06:53:11;28.85;;;7.55;;
18259;SDS011;9256;52.236;5.712;2023-04-01T06:55:43;27.02;;;6.80;;
18259;SDS011;9256;52.236;5.712;2023-04-01T06:58:13;28.33;;;6.30;;
18259;SDS011;9256;52.236;5.712;2023-04-01T07:00:46;24.27;;;6.00;;
18259;SDS011;9256;52.236;5.712;2023-04-01T07:03:18;29.85;;;6.30;;
18259;SDS011;9256;52.236;5.712;2023-04-01T07:05:49;26.33;;;6.07;;
18259;SDS011;9256;52.236;5.712;2023-04-01T07:08:20;27.40;;;6.55;;
18259;SDS011;9256;52.236;5.712;2023-04-01T07:10:50;25.33;;;5.65;;
18259;SDS011;9256;52.236;5.712;2023-04-01T07:13:22;21.40;;;5.13;;
18259;SDS011;9256;52.236;5.712;2023-04-01T07:15:58;23.50;;;5.13;;
18259;SDS011;9256;52.236;5.712;2023-04-01T07:18:34;22.70;;;4.90;;
18259;SDS011;9256;52.236;5.712;2023-04-01T07:21:09;24.02;;;5.43;;
18259;SDS011;9256;52.236;5.712;2023-04-01T07:23:44;21.25;;;4.68;;
18259;SDS011;9256;52.236;5.712;2023-04-01T07:26:15;20.15;;;4.88;;
18259;SDS011;9256;52.236;5.712;2023-04-01T07:28:45;17.47;;;5.30;;
18259;SDS011;9256;52.236;5.712;2023-04-01T07:31:15;14.60;;;4.00;;
18259;SDS011;9256;52.236;5.712;2023-04-01T07:33:50;13.13;;;3.78;;
18259;SDS011;9256;52.236;5.712;2023-04-01T07:36:26;9.68;;;3.20;;
18259;SDS011;9256;52.236;5.712;2023-04-01T07:39:02;11.80;;;3.55;;
18259;SDS011;9256;52.236;5.712;2023-04-01T07:41:40;12.75;;;3.60;;
18259;SDS011;9256;52.236;5.712;2023-04-01T07:44:16;7.88;;;2.70;;
18259;SDS011;9256;52.236;5.712;2023-04-01T07:46:56;5.60;;;2.00;;
18259;SDS011;9256;52.236;5.712;2023-04-01T07:49:32;8.00;;;2.80;;
18259;SDS011;9256;52.236;5.712;2023-04-01T07:52:08;4.57;;;1.83;;
18259;SDS011;9256;52.236;5.712;2023-04-01T07:54:46;5.85;;;1.90;;
18259;SDS011;9256;52.236;5.712;2023-04-01T07:57:18;5.70;;;1.90;;
18259;SDS011;9256;52.236;5.712;2023-04-01T07:59:52;5.18;;;1.20;;
18259;SDS011;9256;52.236;5.712;2023-04-01T08:02:38;3.78;;;1.52;;
18259;SDS011;9256;52.236;5.712;2023-04-01T08:05:18;5.22;;;1.27;;
18259;SDS011;9256;52.236;5.712;2023-04-01T08:07:52;3.67;;;1.48;;
18259;SDS011;9256;52.236;5.712;2023-04-01T08:10:33;3.28;;;1.40;;
18259;SDS011;9256;52.236;5.712;2023-04-01T08:13:07;2.75;;;1.45;;
18259;SDS011;9256;52.236;5.712;2023-04-01T08:15:43;2.22;;;0.82;;
18259;SDS011;9256;52.236;5.712;2023-04-01T08:18:24;3.08;;;1.25;;
18259;SDS011;9256;52.236;5.712;2023-04-01T08:20:58;3.33;;;1.00;;
18259;SDS011;9256;52.236;5.712;2023-04-01T08:23:27;2.45;;;1.10;;
18259;SDS011;9256;52.236;5.712;2023-04-01T08:26:00;3.53;;;1.25;;
18259;SDS011;9256;52.236;5.712;2023-04-01T08:28:32;2.78;;;1.08;;
18259;SDS011;9256;52.236;5.712;2023-04-01T08:31:04;4.13;;;1.65;;
18259;SDS011;9256;52.236;5.712;2023-04-01T08:33:35;2.72;;;1.00;;
18259;SDS011;9256;52.236;5.712;2023-04-01T08:36:05;3.55;;;1.20;;
18259;SDS011;9256;52.236;5.712;2023-04-01T08:38:38;3.33;;;1.13;;
18259;SDS011;9256;52.236;5.712;2023-04-01T08:44:29;4.28;;;1.50;;
18259;SDS011;9256;52.236;5.712;2023-04-01T08:47:09;3.38;;;1.40;;
18259;SDS011;9256;52.236;5.712;2023-04-01T08:50:12;3.95;;;1.65;;
18259;SDS011;9256;52.236;5.712;2023-04-01T08:52:58;3.85;;;1.33;;
18259;SDS011;9256;52.236;5.712;2023-04-01T08:55:40;4.70;;;1.80;;
18259;SDS011;9256;52.236;5.712;2023-04-01T08:58:23;4.88;;;1.80;;
18259;SDS011;9256;52.236;5.712;2023-04-01T09:01:17;5.85;;;2.10;;
18259;SDS011;9256;52.236;5.712;2023-04-01T09:04:04;5.20;;;1.90;;
18259;SDS011;9256;52.236;5.712;2023-04-01T09:06:52;5.90;;;2.53;;
18259;SDS011;9256;52.236;5.712;2023-04-01T09:09:43;5.15;;;2.10;;
18259;SDS011;9256;52.236;5.712;2023-04-01T09:12:39;5.72;;;2.05;;
18259;SDS011;9256;52.236;5.712;2023-04-01T09:15:22;5.28;;;2.10;;
18259;SDS011;9256;52.236;5.712;2023-04-01T09:21:29;5.82;;;2.67;;
18259;SDS011;9256;52.236;5.712;2023-04-01T09:27:14;4.90;;;2.50;;
18259;SDS011;9256;52.236;5.712;2023-04-01T09:30:02;4.20;;;1.83;;
18259;SDS011;9256;52.236;5.712;2023-04-01T09:36:13;4.55;;;1.48;;
18259;SDS011;9256;52.236;5.712;2023-04-01T09:38:55;2.25;;;1.17;;
18259;SDS011;9256;52.236;5.712;2023-04-01T09:41:27;3.50;;;1.20;;
18259;SDS011;9256;52.236;5.712;2023-04-01T09:44:03;2.65;;;1.30;;
18259;SDS011;9256;52.236;5.712;2023-04-01T09:46:44;2.92;;;1.20;;
18259;SDS011;9256;52.236;5.712;2023-04-01T09:49:29;1.67;;;0.80;;
18259;SDS011;9256;52.236;5.712;2023-04-01T09:52:08;3.63;;;1.00;;
18259;SDS011;9256;52.236;5.712;2023-04-01T09:54:58;1.85;;;1.00;;
18259;SDS011;9256;52.236;5.712;2023-04-01T10:00:47;5.57;;;2.58;;
18259;SDS011;9256;52.236;5.712;2023-04-01T10:04:03;3.22;;;1.52;;
18259;SDS011;9256;52.236;5.712;2023-04-01T10:16:01;1.80;;;0.80;;
18259;SDS011;9256;52.236;5.712;2023-04-01T10:18:48;1.98;;;1.00;;
18259;SDS011;9256;52.236;5.712;2023-04-01T10:21:32;2.05;;;0.95;;
18259;SDS011;9256;52.236;5.712;2023-04-01T10:24:35;3.22;;;1.50;;
18259;SDS011;9256;52.236;5.712;2023-04-01T10:27:35;3.17;;;1.63;;
18259;SDS011;9256;52.236;5.712;2023-04-01T10:30:34;2.50;;;1.13;;
18259;SDS011;9256;52.236;5.712;2023-04-01T10:33:36;2.17;;;1.10;;
18259;SDS011;9256;52.236;5.712;2023-04-01T10:39:32;3.15;;;1.55;;
18259;SDS011;9256;52.236;5.712;2023-04-01T10:42:22;2.65;;;1.40;;
18259;SDS011;9256;52.236;5.712;2023-04-01T10:48:16;4.37;;;1.87;;
18259;SDS011;9256;52.236;5.712;2023-04-01T10:51:18;24.77;;;7.55;;
18259;SDS011;9256;52.236;5.712;2023-04-01T10:54:16;3.15;;;1.42;;
18259;SDS011;9256;52.236;5.712;2023-04-01T10:56:51;10.77;;;4.57;;
18259;SDS011;9256;52.236;5.712;2023-04-01T10:59:31;3.42;;;1.67;;
18259;SDS011;9256;52.236;5.712;2023-04-01T11:24:34;5.75;;;2.42;;
18259;SDS011;9256;52.236;5.712;2023-04-01T11:27:24;5.57;;;2.58;;
18259;SDS011;9256;52.236;5.712;2023-04-01T11:33:21;4.63;;;1.98;;
18259;SDS011;9256;52.236;5.712;2023-04-01T11:36:02;5.30;;;2.00;;
18259;SDS011;9256;52.236;5.712;2023-04-01T11:38:53;4.75;;;2.03;;
18259;SDS011;9256;52.236;5.712;2023-04-01T11:41:32;5.63;;;2.05;;
18259;SDS011;9256;52.236;5.712;2023-04-01T11:44:11;4.93;;;2.40;;
18259;SDS011;9256;52.236;5.712;2023-04-01T11:46:46;5.03;;;2.20;;
18259;SDS011;9256;52.236;5.712;2023-04-01T11:49:46;5.07;;;2.00;;
18259;SDS011;9256;52.236;5.712;2023-04-01T11:52:26;5.25;;;1.77;;
18259;SDS011;9256;52.236;5.712;2023-04-01T11:55:11;5.38;;;2.20;;
18259;SDS011;9256;52.236;5.712;2023-04-01T12:06:50;7.68;;;3.30;;
18259;SDS011;9256;52.236;5.712;2023-04-01T12:09:25;6.30;;;2.63;;
18259;SDS011;9256;52.236;5.712;2023-04-01T12:12:11;6.70;;;2.58;;
18259;SDS011;9256;52.236;5.712;2023-04-01T12:14:45;5.88;;;2.47;;
18259;SDS011;9256;52.236;5.712;2023-04-01T12:17:26;6.25;;;2.65;;
18259;SDS011;9256;52.236;5.712;2023-04-01T12:19:59;6.47;;;2.90;;
18259;SDS011;9256;52.236;5.712;2023-04-01T12:22:44;7.45;;;3.40;;
18259;SDS011;9256;52.236;5.712;2023-04-01T12:25:24;7.45;;;3.30;;
18259;SDS011;9256;52.236;5.712;2023-04-01T12:28:06;8.07;;;3.35;;
18259;SDS011;9256;52.236;5.712;2023-04-01T12:30:53;6.97;;;2.80;;
18259;SDS011;9256;52.236;5.712;2023-04-01T12:36:46;7.40;;;3.10;;
18259;SDS011;9256;52.236;5.712;2023-04-01T12:39:35;8.10;;;3.30;;
18259;SDS011;9256;52.236;5.712;2023-04-01T12:42:21;10.63;;;4.30;;
18259;SDS011;9256;52.236;5.712;2023-04-01T12:45:07;8.13;;;3.10;;
18259;SDS011;9256;52.236;5.712;2023-04-01T12:48:00;7.82;;;2.70;;
18259;SDS011;9256;52.236;5.712;2023-04-01T12:51:08;7.55;;;2.70;;
18259;SDS011;9256;52.236;5.712;2023-04-01T12:54:24;5.60;;;2.33;;
18259;SDS011;9256;52.236;5.712;2023-04-01T12:57:25;6.03;;;2.63;;
18259;SDS011;9256;52.236;5.712;2023-04-01T13:00:10;7.07;;;2.85;;
18259;SDS011;9256;52.236;5.712;2023-04-01T13:02:52;9.17;;;3.97;;
18259;SDS011;9256;52.236;5.712;2023-04-01T13:08:43;9.07;;;3.08;;
18259;SDS011;9256;52.236;5.712;2023-04-01T13:11:19;8.38;;;3.97;;
18259;SDS011;9256;52.236;5.712;2023-04-01T13:14:00;9.70;;;4.00;;
18259;SDS011;9256;52.236;5.712;2023-04-01T13:16:51;7.32;;;2.97;;
18259;SDS011;9256;52.236;5.712;2023-04-01T13:19:23;7.38;;;3.53;;
18259;SDS011;9256;52.236;5.712;2023-04-01T13:21:57;9.05;;;2.88;;
18259;SDS011;9256;52.236;5.712;2023-04-01T13:24:40;10.27;;;4.30;;
18259;SDS011;9256;52.236;5.712;2023-04-01T13:27:16;8.10;;;3.47;;
18259;SDS011;9256;52.236;5.712;2023-04-01T13:29:57;10.73;;;5.72;;
18259;SDS011;9256;52.236;5.712;2023-04-01T13:32:32;10.98;;;4.57;;
18259;SDS011;9256;52.236;5.712;2023-04-01T13:35:10;19.25;;;8.27;;
18259;SDS011;9256;52.236;5.712;2023-04-01T13:37:52;24.58;;;9.30;;
18259;SDS011;9256;52.236;5.712;2023-04-01T13:40:33;15.25;;;4.93;;
18259;SDS011;9256;52.236;5.712;2023-04-01T13:43:11;32.92;;;12.77;;
18259;SDS011;9256;52.236;5.712;2023-04-01T13:45:47;11.48;;;4.90;;
18259;SDS011;9256;52.236;5.712;2023-04-01T13:48:42;14.50;;;6.55;;
18259;SDS011;9256;52.236;5.712;2023-04-01T13:51:35;16.45;;;7.05;;
18259;SDS011;9256;52.236;5.712;2023-04-01T13:54:29;16.27;;;6.82;;
18259;SDS011;9256;52.236;5.712;2023-04-01T13:57:22;19.10;;;8.32;;
18259;SDS011;9256;52.236;5.712;2023-04-01T14:00:15;25.52;;;9.30;;
18259;SDS011;9256;52.236;5.712;2023-04-01T14:02:58;17.13;;;6.25;;
18259;SDS011;9256;52.236;5.712;2023-04-01T14:05:45;25.92;;;8.68;;
18259;SDS011;9256;52.236;5.712;2023-04-01T14:08:26;17.58;;;6.05;;
18259;SDS011;9256;52.236;5.712;2023-04-01T14:11:06;40.90;;;14.55;;
18259;SDS011;9256;52.236;5.712;2023-04-01T14:13:41;42.20;;;15.40;;
18259;SDS011;9256;52.236;5.712;2023-04-01T14:16:27;38.65;;;13.93;;
18259;SDS011;9256;52.236;5.712;2023-04-01T14:19:19;59.30;;;20.48;;
18259;SDS011;9256;52.236;5.712;2023-04-01T14:21:56;35.85;;;12.88;;
18259;SDS011;9256;52.236;5.712;2023-04-01T14:24:36;23.45;;;9.85;;
18259;SDS011;9256;52.236;5.712;2023-04-01T14:33:13;26.92;;;10.18;;
18259;SDS011;9256;52.236;5.712;2023-04-01T14:36:00;29.08;;;10.43;;
18259;SDS011;9256;52.236;5.712;2023-04-01T14:38:47;16.10;;;7.00;;
18259;SDS011;9256;52.236;5.712;2023-04-01T14:41:23;20.45;;;8.55;;
18259;SDS011;9256;52.236;5.712;2023-04-01T14:44:14;16.02;;;6.50;;
18259;SDS011;9256;52.236;5.712;2023-04-01T14:50:02;17.27;;;7.55;;
18259;SDS011;9256;52.236;5.712;2023-04-01T14:52:33;14.20;;;6.15;;
18259;SDS011;9256;52.236;5.712;2023-04-01T14:55:10;17.23;;;6.80;;
18259;SDS011;9256;52.236;5.712;2023-04-01T14:57:57;10.73;;;4.82;;
18259;SDS011;9256;52.236;5.712;2023-04-01T15:00:26;13.23;;;6.28;;
18259;SDS011;9256;52.236;5.712;2023-04-01T15:02:55;9.52;;;4.70;;
18259;SDS011;9256;52.236;5.712;2023-04-01T15:05:32;9.38;;;4.30;;
18259;SDS011;9256;52.236;5.712;2023-04-01T15:08:17;8.73;;;4.50;;
18259;SDS011;9256;52.236;5.712;2023-04-01T15:10:56;10.65;;;5.47;;
18259;SDS011;9256;52.236;5.712;2023-04-01T15:16:34;9.43;;;4.53;;
18259;SDS011;9256;52.236;5.712;2023-04-01T15:19:11;13.70;;;7.18;;
18259;SDS011;9256;52.236;5.712;2023-04-01T15:21:50;25.15;;;10.68;;
18259;SDS011;9256;52.236;5.712;2023-04-01T15:24:39;11.10;;;4.97;;
18259;SDS011;9256;52.236;5.712;2023-04-01T15:27:15;21.80;;;10.68;;
18259;SDS011;9256;52.236;5.712;2023-04-01T15:35:56;11.30;;;5.70;;
18259;SDS011;9256;52.236;5.712;2023-04-01T15:38:33;8.73;;;4.20;;
18259;SDS011;9256;52.236;5.712;2023-04-01T15:41:08;9.98;;;5.95;;
18259;SDS011;9256;52.236;5.712;2023-04-01T15:43:41;17.90;;;9.32;;
18259;SDS011;9256;52.236;5.712;2023-04-01T15:46:12;14.80;;;7.43;;
18259;SDS011;9256;52.236;5.712;2023-04-01T15:49:11;12.50;;;6.70;;
18259;SDS011;9256;52.236;5.712;2023-04-01T15:51:47;10.25;;;5.47;;
18259;SDS011;9256;52.236;5.712;2023-04-01T15:54:30;11.68;;;6.45;;
18259;SDS011;9256;52.236;5.712;2023-04-01T15:57:15;12.10;;;6.43;;
18259;SDS011;9256;52.236;5.712;2023-04-01T15:59:56;13.13;;;7.50;;
18259;SDS011;9256;52.236;5.712;2023-04-01T16:02:42;18.05;;;8.45;;
18259;SDS011;9256;52.236;5.712;2023-04-01T16:08:11;12.45;;;5.85;;
18259;SDS011;9256;52.236;5.712;2023-04-01T16:10:54;10.73;;;5.70;;
18259;SDS011;9256;52.236;5.712;2023-04-01T16:13:40;8.65;;;4.40;;
18259;SDS011;9256;52.236;5.712;2023-04-01T16:16:18;9.90;;;4.32;;
18259;SDS011;9256;52.236;5.712;2023-04-01T16:18:59;9.35;;;3.83;;
18259;SDS011;9256;52.236;5.712;2023-04-01T16:21:48;7.97;;;3.95;;
18259;SDS011;9256;52.236;5.712;2023-04-01T16:24:18;10.45;;;5.20;;
18259;SDS011;9256;52.236;5.712;2023-04-01T16:26:52;10.75;;;4.45;;
18259;SDS011;9256;52.236;5.712;2023-04-01T16:29:27;9.50;;;4.35;;
18259;SDS011;9256;52.236;5.712;2023-04-01T16:32:02;7.85;;;3.88;;
18259;SDS011;9256;52.236;5.712;2023-04-01T16:34:43;10.13;;;4.30;;
18259;SDS011;9256;52.236;5.712;2023-04-01T16:37:15;61.83;;;16.67;;
18259;SDS011;9256;52.236;5.712;2023-04-01T16:39:47;14.93;;;5.10;;
18259;SDS011;9256;52.236;5.712;2023-04-01T16:42:24;26.63;;;9.00;;
18259;SDS011;9256;52.236;5.712;2023-04-01T16:44:59;23.75;;;8.52;;
18259;SDS011;9256;52.236;5.712;2023-04-01T16:47:45;27.55;;;10.77;;
18259;SDS011;9256;52.236;5.712;2023-04-01T16:50:17;11.20;;;5.22;;
18259;SDS011;9256;52.236;5.712;2023-04-01T16:52:53;16.83;;;6.60;;
18259;SDS011;9256;52.236;5.712;2023-04-01T16:55:34;19.13;;;7.53;;
18259;SDS011;9256;52.236;5.712;2023-04-01T16:58:08;16.13;;;6.35;;
18259;SDS011;9256;52.236;5.712;2023-04-01T17:00:41;11.82;;;5.47;;
18259;SDS011;9256;52.236;5.712;2023-04-01T17:03:16;21.20;;;8.73;;
18259;SDS011;9256;52.236;5.712;2023-04-01T17:05:50;23.10;;;9.32;;
18259;SDS011;9256;52.236;5.712;2023-04-01T17:08:28;17.58;;;7.10;;
18259;SDS011;9256;52.236;5.712;2023-04-01T17:11:05;18.30;;;7.32;;
18259;SDS011;9256;52.236;5.712;2023-04-01T17:13:43;18.48;;;6.80;;
18259;SDS011;9256;52.236;5.712;2023-04-01T17:16:27;21.23;;;9.15;;
18259;SDS011;9256;52.236;5.712;2023-04-01T17:19:14;28.05;;;10.30;;
18259;SDS011;9256;52.236;5.712;2023-04-01T17:21:56;24.40;;;9.85;;
18259;SDS011;9256;52.236;5.712;2023-04-01T17:24:31;21.80;;;8.68;;
18259;SDS011;9256;52.236;5.712;2023-04-01T17:27:12;15.52;;;7.07;;
18259;SDS011;9256;52.236;5.712;2023-04-01T17:29:58;14.68;;;6.75;;